sensor_id;sensor_type;location;lat;lon;timestamp;P1;durP1;ratioP1;P2;durP2;ratioP2
18806;SDS011;9531;52.030;4.380;2023-04-01T00:01:54;44.22;;;6.60;;
18806;SDS011;9531;52.030;4.380;2023-04-01T00:04:21;41.08;;;7.13;;
18806;SDS011;9531;52.030;4.380;2023-04-01T00:06:48;34.47;;;5.90;;
18806;SDS011;9531;52.030;4.380;2023-04-01T00:09:15;45.00;;;7.40;;
18806;SDS011;9531;52.030;4.380;2023-04-01T00:11:43;34.30;;;6.75;;
18806;SDS011;9531;52.030;4.380;2023-04-01T00:14:10;40.50;;;6.80;;
18806;SDS011;9531;52.030;4.380;2023-04-01T00:16:37;30.85;;;6.10;;
18806;SDS011;9531;52.030;4.380;2023-04-01T00:19:04;31.45;;;6.50;;
18806;SDS011;9531;52.030;4.380;2023-04-01T00:21:31;29.25;;;6.15;;
18806;SDS011;9531;52.030;4.380;2023-04-01T00:23:58;20.85;;;5.22;;
18806;SDS011;9531;52.030;4.380;2023-04-01T00:26:25;27.85;;;6.70;;
18806;SDS011;9531;52.030;4.380;2023-04-01T00:28:54;35.33;;;7.03;;
18806;SDS011;9531;52.030;4.380;2023-04-01T00:31:21;40.38;;;7.15;;
18806;SDS011;9531;52.030;4.380;2023-04-01T00:33:48;39.83;;;6.60;;
18806;SDS011;9531;52.030;4.380;2023-04-01T00:36:16;28.42;;;6.28;;
18806;SDS011;9531;52.030;4.380;2023-04-01T00:38:46;37.60;;;6.75;;
18806;SDS011;9531;52.030;4.380;2023-04-01T00:41:14;44.83;;;6.65;;
18806;SDS011;9531;52.030;4.380;2023-04-01T00:43:43;35.83;;;6.47;;
18806;SDS011;9531;52.030;4.380;2023-04-01T00:46:13;31.27;;;6.13;;
18806;SDS011;9531;52.030;4.380;2023-04-01T00:48:41;35.28;;;6.32;;
18806;SDS011;9531;52.030;4.380;2023-04-01T00:51:11;41.85;;;7.75;;
18806;SDS011;9531;52.030;4.380;2023-04-01T00:53:43;39.42;;;6.45;;
18806;SDS011;9531;52.030;4.380;2023-04-01T00:56:14;26.08;;;6.20;;
18806;SDS011;9531;52.030;4.380;2023-04-01T00:58:46;34.90;;;6.72;;
18806;SDS011;9531;52.030;4.380;2023-04-01T01:01:17;28.00;;;6.03;;
18806;SDS011;9531;52.030;4.380;2023-04-01T01:03:46;32.35;;;6.43;;
18806;SDS011;9531;52.030;4.380;2023-04-01T01:06:16;30.38;;;6.18;;
18806;SDS011;9531;52.030;4.380;2023-04-01T01:09:05;23.42;;;5.55;;
18806;SDS011;9531;52.030;4.380;2023-04-01T01:11:39;22.55;;;5.80;;
18806;SDS011;9531;52.030;4.380;2023-04-01T01:14:12;22.10;;;4.45;;
18806;SDS011;9531;52.030;4.380;2023-04-01T01:16:53;22.67;;;5.20;;
18806;SDS011;9531;52.030;4.380;2023-04-01T01:19:40;25.95;;;5.65;;
18806;SDS011;9531;52.030;4.380;2023-04-01T01:22:25;19.55;;;4.18;;
18806;SDS011;9531;52.030;4.380;2023-04-01T01:25:06;19.60;;;5.05;;
18806;SDS011;9531;52.030;4.380;2023-04-01T01:27:42;26.35;;;5.80;;
18806;SDS011;9531;52.030;4.380;2023-04-01T01:30:22;16.75;;;4.63;;
18806;SDS011;9531;52.030;4.380;2023-04-01T01:33:07;16.88;;;4.38;;
18806;SDS011;9531;52.030;4.380;2023-04-01T01:35:45;17.67;;;4.30;;
18806;SDS011;9531;52.030;4.380;2023-04-01T01:38:15;11.98;;;3.80;;
18806;SDS011;9531;52.030;4.380;2023-04-01T01:40:44;9.85;;;3.50;;
18806;SDS011;9531;52.030;4.380;2023-04-01T01:43:17;14.00;;;3.47;;
18806;SDS011;9531;52.030;4.380;2023-04-01T01:45:49;10.90;;;3.47;;
18806;SDS011;9531;52.030;4.380;2023-04-01T01:48:19;12.05;;;3.67;;
18806;SDS011;9531;52.030;4.380;2023-04-01T01:50:48;12.55;;;3.35;;
18806;SDS011;9531;52.030;4.380;2023-04-01T01:53:16;13.25;;;3.20;;
18806;SDS011;9531;52.030;4.380;2023-04-01T01:55:43;13.00;;;3.33;;
18806;SDS011;9531;52.030;4.380;2023-04-01T01:58:12;12.73;;;3.63;;
18806;SDS011;9531;52.030;4.380;2023-04-01T02:00:43;13.15;;;3.63;;
18806;SDS011;9531;52.030;4.380;2023-04-01T02:03:14;9.88;;;2.95;;
18806;SDS011;9531;52.030;4.380;2023-04-01T02:05:44;10.23;;;3.10;;
18806;SDS011;9531;52.030;4.380;2023-04-01T02:08:14;11.82;;;3.35;;
18806;SDS011;9531;52.030;4.380;2023-04-01T02:10:45;10.23;;;3.08;;
18806;SDS011;9531;52.030;4.380;2023-04-01T02:13:18;11.63;;;3.38;;
18806;SDS011;9531;52.030;4.380;2023-04-01T02:15:51;9.80;;;3.17;;
18806;SDS011;9531;52.030;4.380;2023-04-01T02:18:21;8.55;;;3.13;;
18806;SDS011;9531;52.030;4.380;2023-04-01T02:20:49;6.97;;;2.90;;
18806;SDS011;9531;52.030;4.380;2023-04-01T02:23:18;10.35;;;3.30;;
18806;SDS011;9531;52.030;4.380;2023-04-01T02:25:46;10.85;;;3.50;;
18806;SDS011;9531;52.030;4.380;2023-04-01T02:28:13;8.43;;;3.10;;
18806;SDS011;9531;52.030;4.380;2023-04-01T02:30:44;9.88;;;4.00;;
18806;SDS011;9531;52.030;4.380;2023-04-01T02:33:13;8.98;;;3.95;;
18806;SDS011;9531;52.030;4.380;2023-04-01T02:35:41;7.50;;;3.95;;
18806;SDS011;9531;52.030;4.380;2023-04-01T02:38:08;10.25;;;3.95;;
18806;SDS011;9531;52.030;4.380;2023-04-01T02:40:47;8.43;;;3.33;;
18806;SDS011;9531;52.030;4.380;2023-04-01T02:43:16;6.28;;;3.13;;
18806;SDS011;9531;52.030;4.380;2023-04-01T02:45:44;6.90;;;3.40;;
18806;SDS011;9531;52.030;4.380;2023-04-01T02:48:11;13.10;;;5.75;;
18806;SDS011;9531;52.030;4.380;2023-04-01T02:50:39;8.48;;;3.97;;
18806;SDS011;9531;52.030;4.380;2023-04-01T02:53:06;10.43;;;4.70;;
18806;SDS011;9531;52.030;4.380;2023-04-01T02:55:33;14.73;;;6.47;;
18806;SDS011;9531;52.030;4.380;2023-04-01T02:58:01;17.02;;;6.82;;
18806;SDS011;9531;52.030;4.380;2023-04-01T03:00:28;14.45;;;5.90;;
18806;SDS011;9531;52.030;4.380;2023-04-01T03:02:55;15.25;;;7.88;;
18806;SDS011;9531;52.030;4.380;2023-04-01T03:05:22;15.85;;;5.90;;
18806;SDS011;9531;52.030;4.380;2023-04-01T03:07:49;15.25;;;7.03;;
18806;SDS011;9531;52.030;4.380;2023-04-01T03:10:16;12.63;;;4.93;;
18806;SDS011;9531;52.030;4.380;2023-04-01T03:12:43;21.33;;;7.95;;
18806;SDS011;9531;52.030;4.380;2023-04-01T03:15:12;13.93;;;5.78;;
18806;SDS011;9531;52.030;4.380;2023-04-01T03:17:40;10.02;;;5.18;;
18806;SDS011;9531;52.030;4.380;2023-04-01T03:20:08;10.82;;;5.32;;
18806;SDS011;9531;52.030;4.380;2023-04-01T03:22:36;16.60;;;6.90;;
18806;SDS011;9531;52.030;4.380;2023-04-01T03:25:03;16.98;;;6.88;;
18806;SDS011;9531;52.030;4.380;2023-04-01T03:27:32;13.63;;;6.20;;
18806;SDS011;9531;52.030;4.380;2023-04-01T03:29:59;16.05;;;5.45;;
18806;SDS011;9531;52.030;4.380;2023-04-01T03:32:27;10.45;;;5.00;;
18806;SDS011;9531;52.030;4.380;2023-04-01T03:34:54;13.68;;;5.80;;
18806;SDS011;9531;52.030;4.380;2023-04-01T03:37:22;20.38;;;6.22;;
18806;SDS011;9531;52.030;4.380;2023-04-01T03:39:50;10.82;;;5.72;;
18806;SDS011;9531;52.030;4.380;2023-04-01T03:42:17;11.77;;;5.32;;
18806;SDS011;9531;52.030;4.380;2023-04-01T03:44:44;12.52;;;5.57;;
18806;SDS011;9531;52.030;4.380;2023-04-01T03:47:11;11.30;;;6.05;;
18806;SDS011;9531;52.030;4.380;2023-04-01T03:49:39;10.88;;;5.68;;
18806;SDS011;9531;52.030;4.380;2023-04-01T03:52:08;12.60;;;5.78;;
18806;SDS011;9531;52.030;4.380;2023-04-01T03:54:35;10.52;;;5.43;;
18806;SDS011;9531;52.030;4.380;2023-04-01T03:57:02;10.48;;;6.22;;
18806;SDS011;9531;52.030;4.380;2023-04-01T03:59:29;11.90;;;5.88;;
18806;SDS011;9531;52.030;4.380;2023-04-01T04:01:56;14.07;;;6.50;;
18806;SDS011;9531;52.030;4.380;2023-04-01T04:04:23;11.00;;;4.97;;
18806;SDS011;9531;52.030;4.380;2023-04-01T04:06:52;16.50;;;6.63;;
18806;SDS011;9531;52.030;4.380;2023-04-01T04:09:19;18.70;;;6.80;;
18806;SDS011;9531;52.030;4.380;2023-04-01T04:11:47;12.73;;;5.05;;
18806;SDS011;9531;52.030;4.380;2023-04-01T04:14:14;12.23;;;6.68;;
18806;SDS011;9531;52.030;4.380;2023-04-01T04:16:41;8.85;;;4.60;;
18806;SDS011;9531;52.030;4.380;2023-04-01T04:19:09;10.60;;;5.50;;
18806;SDS011;9531;52.030;4.380;2023-04-01T04:21:36;13.43;;;6.88;;
18806;SDS011;9531;52.030;4.380;2023-04-01T04:24:05;13.02;;;6.72;;
18806;SDS011;9531;52.030;4.380;2023-04-01T04:26:32;10.82;;;4.90;;
18806;SDS011;9531;52.030;4.380;2023-04-01T04:28:59;13.35;;;5.82;;
18806;SDS011;9531;52.030;4.380;2023-04-01T04:31:26;12.13;;;5.50;;
18806;SDS011;9531;52.030;4.380;2023-04-01T04:33:53;9.05;;;4.95;;
18806;SDS011;9531;52.030;4.380;2023-04-01T04:36:21;10.10;;;4.40;;
18806;SDS011;9531;52.030;4.380;2023-04-01T04:38:48;9.00;;;4.50;;
18806;SDS011;9531;52.030;4.380;2023-04-01T04:41:17;11.85;;;5.32;;
18806;SDS011;9531;52.030;4.380;2023-04-01T04:43:48;11.15;;;4.90;;
18806;SDS011;9531;52.030;4.380;2023-04-01T04:46:17;11.77;;;5.70;;
18806;SDS011;9531;52.030;4.380;2023-04-01T04:48:45;13.15;;;6.38;;
18806;SDS011;9531;52.030;4.380;2023-04-01T04:51:13;12.73;;;6.22;;
18806;SDS011;9531;52.030;4.380;2023-04-01T04:53:41;7.32;;;4.25;;
18806;SDS011;9531;52.030;4.380;2023-04-01T04:56:08;9.63;;;6.20;;
18806;SDS011;9531;52.030;4.380;2023-04-01T04:58:37;12.00;;;5.72;;
18806;SDS011;9531;52.030;4.380;2023-04-01T05:01:05;14.15;;;6.05;;
18806;SDS011;9531;52.030;4.380;2023-04-01T05:03:33;16.63;;;7.72;;
18806;SDS011;9531;52.030;4.380;2023-04-01T05:06:00;10.98;;;5.75;;
18806;SDS011;9531;52.030;4.380;2023-04-01T05:08:27;9.63;;;4.60;;
18806;SDS011;9531;52.030;4.380;2023-04-01T05:10:54;8.70;;;4.95;;
18806;SDS011;9531;52.030;4.380;2023-04-01T05:13:21;12.32;;;6.00;;
18806;SDS011;9531;52.030;4.380;2023-04-01T05:15:50;11.20;;;6.60;;
18806;SDS011;9531;52.030;4.380;2023-04-01T05:18:17;12.75;;;6.05;;
18806;SDS011;9531;52.030;4.380;2023-04-01T05:20:47;8.15;;;4.40;;
18806;SDS011;9531;52.030;4.380;2023-04-01T05:23:14;11.98;;;5.30;;
18806;SDS011;9531;52.030;4.380;2023-04-01T05:25:41;12.63;;;5.47;;
18806;SDS011;9531;52.030;4.380;2023-04-01T05:28:10;9.88;;;4.32;;
18806;SDS011;9531;52.030;4.380;2023-04-01T05:30:39;9.60;;;5.18;;
18806;SDS011;9531;52.030;4.380;2023-04-01T05:33:08;10.52;;;5.45;;
18806;SDS011;9531;52.030;4.380;2023-04-01T05:35:35;13.60;;;6.28;;
18806;SDS011;9531;52.030;4.380;2023-04-01T05:38:02;12.25;;;6.07;;
18806;SDS011;9531;52.030;4.380;2023-04-01T05:40:29;11.48;;;6.00;;
18806;SDS011;9531;52.030;4.380;2023-04-01T05:42:57;13.82;;;4.88;;
18806;SDS011;9531;52.030;4.380;2023-04-01T05:45:24;11.82;;;5.07;;
18806;SDS011;9531;52.030;4.380;2023-04-01T05:47:52;7.43;;;4.63;;
18806;SDS011;9531;52.030;4.380;2023-04-01T05:50:20;10.25;;;4.95;;
18806;SDS011;9531;52.030;4.380;2023-04-01T05:52:47;12.15;;;5.03;;
18806;SDS011;9531;52.030;4.380;2023-04-01T05:55:15;7.80;;;5.00;;
18806;SDS011;9531;52.030;4.380;2023-04-01T05:57:42;9.35;;;5.55;;
18806;SDS011;9531;52.030;4.380;2023-04-01T06:00:11;10.88;;;6.47;;
18806;SDS011;9531;52.030;4.380;2023-04-01T06:02:38;11.52;;;5.72;;
18806;SDS011;9531;52.030;4.380;2023-04-01T06:05:11;8.55;;;4.57;;
18806;SDS011;9531;52.030;4.380;2023-04-01T06:07:43;9.95;;;4.78;;
18806;SDS011;9531;52.030;4.380;2023-04-01T06:10:14;7.80;;;4.13;;
18806;SDS011;9531;52.030;4.380;2023-04-01T06:12:50;11.18;;;5.28;;
18806;SDS011;9531;52.030;4.380;2023-04-01T06:15:28;8.52;;;5.18;;
18806;SDS011;9531;52.030;4.380;2023-04-01T06:21:07;10.73;;;4.32;;
18806;SDS011;9531;52.030;4.380;2023-04-01T06:23:49;8.52;;;4.45;;
18806;SDS011;9531;52.030;4.380;2023-04-01T06:26:24;8.98;;;4.55;;
18806;SDS011;9531;52.030;4.380;2023-04-01T06:29:08;9.95;;;4.82;;
18806;SDS011;9531;52.030;4.380;2023-04-01T06:31:55;13.73;;;6.15;;
18806;SDS011;9531;52.030;4.380;2023-04-01T06:37:35;13.30;;;5.53;;
18806;SDS011;9531;52.030;4.380;2023-04-01T06:43:35;8.32;;;4.50;;
18806;SDS011;9531;52.030;4.380;2023-04-01T06:46:11;8.05;;;4.45;;
18806;SDS011;9531;52.030;4.380;2023-04-01T06:49:02;10.30;;;4.57;;
18806;SDS011;9531;52.030;4.380;2023-04-01T06:51:39;11.10;;;5.47;;
18806;SDS011;9531;52.030;4.380;2023-04-01T06:54:14;7.22;;;3.85;;
18806;SDS011;9531;52.030;4.380;2023-04-01T06:56:53;9.48;;;4.72;;
18806;SDS011;9531;52.030;4.380;2023-04-01T06:59:27;10.68;;;4.72;;
18806;SDS011;9531;52.030;4.380;2023-04-01T07:01:59;9.73;;;5.13;;
18806;SDS011;9531;52.030;4.380;2023-04-01T07:04:33;6.97;;;3.83;;
18806;SDS011;9531;52.030;4.380;2023-04-01T07:07:04;7.95;;;3.95;;
18806;SDS011;9531;52.030;4.380;2023-04-01T07:09:38;5.65;;;3.30;;
18806;SDS011;9531;52.030;4.380;2023-04-01T07:12:12;5.65;;;3.22;;
18806;SDS011;9531;52.030;4.380;2023-04-01T07:14:45;6.30;;;3.28;;
18806;SDS011;9531;52.030;4.380;2023-04-01T07:17:16;4.28;;;2.97;;
18806;SDS011;9531;52.030;4.380;2023-04-01T07:19:47;4.18;;;2.78;;
18806;SDS011;9531;52.030;4.380;2023-04-01T07:22:21;3.70;;;2.78;;
18806;SDS011;9531;52.030;4.380;2023-04-01T07:24:55;5.28;;;2.20;;
18806;SDS011;9531;52.030;4.380;2023-04-01T07:27:29;4.75;;;2.80;;
18806;SDS011;9531;52.030;4.380;2023-04-01T07:29:55;4.68;;;3.28;;
18806;SDS011;9531;52.030;4.380;2023-04-01T07:32:27;5.65;;;3.15;;
18806;SDS011;9531;52.030;4.380;2023-04-01T07:35:04;6.00;;;2.80;;
18806;SDS011;9531;52.030;4.380;2023-04-01T07:37:42;5.28;;;3.00;;
18806;SDS011;9531;52.030;4.380;2023-04-01T07:40:20;6.82;;;3.38;;
18806;SDS011;9531;52.030;4.380;2023-04-01T07:43:00;5.53;;;3.03;;
18806;SDS011;9531;52.030;4.380;2023-04-01T07:45:42;4.97;;;3.15;;
18806;SDS011;9531;52.030;4.380;2023-04-01T07:48:17;10.77;;;5.35;;
18806;SDS011;9531;52.030;4.380;2023-04-01T07:50:53;7.07;;;4.30;;
18806;SDS011;9531;52.030;4.380;2023-04-01T07:53:26;9.07;;;4.65;;
18806;SDS011;9531;52.030;4.380;2023-04-01T07:56:05;7.22;;;4.22;;
18806;SDS011;9531;52.030;4.380;2023-04-01T07:58:38;10.07;;;5.13;;
18806;SDS011;9531;52.030;4.380;2023-04-01T08:01:19;7.15;;;4.25;;
18806;SDS011;9531;52.030;4.380;2023-04-01T08:03:55;11.48;;;5.68;;
18806;SDS011;9531;52.030;4.380;2023-04-01T08:06:35;10.15;;;4.72;;
18806;SDS011;9531;52.030;4.380;2023-04-01T08:09:08;6.50;;;3.72;;
18806;SDS011;9531;52.030;4.380;2023-04-01T08:11:49;8.95;;;4.63;;
18806;SDS011;9531;52.030;4.380;2023-04-01T08:14:32;8.05;;;4.45;;
18806;SDS011;9531;52.030;4.380;2023-04-01T08:17:08;12.52;;;5.47;;
18806;SDS011;9531;52.030;4.380;2023-04-01T08:19:46;8.95;;;4.30;;
18806;SDS011;9531;52.030;4.380;2023-04-01T08:22:23;13.73;;;5.80;;
18806;SDS011;9531;52.030;4.380;2023-04-01T08:24:54;10.95;;;4.53;;
18806;SDS011;9531;52.030;4.380;2023-04-01T08:27:26;11.48;;;5.28;;
18806;SDS011;9531;52.030;4.380;2023-04-01T08:30:02;11.75;;;5.20;;
18806;SDS011;9531;52.030;4.380;2023-04-01T08:32:34;13.50;;;5.57;;
18806;SDS011;9531;52.030;4.380;2023-04-01T08:35:07;14.40;;;5.90;;
18806;SDS011;9531;52.030;4.380;2023-04-01T08:37:41;9.90;;;4.60;;
18806;SDS011;9531;52.030;4.380;2023-04-01T08:40:17;18.90;;;6.10;;
18806;SDS011;9531;52.030;4.380;2023-04-01T08:43:04;11.90;;;6.70;;
18806;SDS011;9531;52.030;4.380;2023-04-01T08:45:48;8.95;;;4.68;;
18806;SDS011;9531;52.030;4.380;2023-04-01T08:48:37;12.05;;;5.20;;
18806;SDS011;9531;52.030;4.380;2023-04-01T08:51:43;12.35;;;5.30;;
18806;SDS011;9531;52.030;4.380;2023-04-01T08:54:32;10.93;;;5.38;;
18806;SDS011;9531;52.030;4.380;2023-04-01T08:57:11;12.50;;;4.78;;
18806;SDS011;9531;52.030;4.380;2023-04-01T08:59:50;7.55;;;3.70;;
18806;SDS011;9531;52.030;4.380;2023-04-01T09:02:34;10.13;;;4.63;;
18806;SDS011;9531;52.030;4.380;2023-04-01T09:08:36;11.75;;;5.35;;
18806;SDS011;9531;52.030;4.380;2023-04-01T09:11:22;12.57;;;5.63;;
18806;SDS011;9531;52.030;4.380;2023-04-01T09:17:01;12.48;;;5.82;;
18806;SDS011;9531;52.030;4.380;2023-04-01T09:20:00;12.70;;;5.72;;
18806;SDS011;9531;52.030;4.380;2023-04-01T09:22:50;16.20;;;5.95;;
18806;SDS011;9531;52.030;4.380;2023-04-01T09:25:41;11.85;;;5.22;;
18806;SDS011;9531;52.030;4.380;2023-04-01T09:28:20;17.00;;;7.00;;
18806;SDS011;9531;52.030;4.380;2023-04-01T09:31:15;16.02;;;7.07;;
18806;SDS011;9531;52.030;4.380;2023-04-01T09:37:21;11.38;;;5.70;;
18806;SDS011;9531;52.030;4.380;2023-04-01T09:40:01;13.02;;;5.60;;
18806;SDS011;9531;52.030;4.380;2023-04-01T09:42:45;11.10;;;6.00;;
18806;SDS011;9531;52.030;4.380;2023-04-01T09:45:34;12.27;;;5.45;;
18806;SDS011;9531;52.030;4.380;2023-04-01T09:48:14;11.70;;;5.03;;
18806;SDS011;9531;52.030;4.380;2023-04-01T09:50:51;11.60;;;6.18;;
18806;SDS011;9531;52.030;4.380;2023-04-01T09:53:32;10.45;;;5.32;;
18806;SDS011;9531;52.030;4.380;2023-04-01T09:56:23;10.25;;;4.47;;
18806;SDS011;9531;52.030;4.380;2023-04-01T09:59:46;11.60;;;4.50;;
18806;SDS011;9531;52.030;4.380;2023-04-01T10:08:48;12.93;;;5.10;;
18806;SDS011;9531;52.030;4.380;2023-04-01T10:18:09;7.45;;;3.90;;
18806;SDS011;9531;52.030;4.380;2023-04-01T10:21:37;10.13;;;4.78;;
18806;SDS011;9531;52.030;4.380;2023-04-01T10:24:34;7.93;;;4.00;;
18806;SDS011;9531;52.030;4.380;2023-04-01T10:27:26;7.03;;;3.78;;
18806;SDS011;9531;52.030;4.380;2023-04-01T10:39:37;8.23;;;4.30;;
18806;SDS011;9531;52.030;4.380;2023-04-01T10:49:07;11.52;;;5.13;;
18806;SDS011;9531;52.030;4.380;2023-04-01T10:55:24;9.60;;;5.05;;
18806;SDS011;9531;52.030;4.380;2023-04-01T10:58:16;10.25;;;5.32;;
18806;SDS011;9531;52.030;4.380;2023-04-01T11:04:37;12.88;;;6.10;;
18806;SDS011;9531;52.030;4.380;2023-04-01T11:07:46;11.45;;;5.38;;
18806;SDS011;9531;52.030;4.380;2023-04-01T11:16:55;11.82;;;5.18;;
18806;SDS011;9531;52.030;4.380;2023-04-01T11:20:07;11.15;;;5.43;;
18806;SDS011;9531;52.030;4.380;2023-04-01T11:22:52;16.88;;;7.85;;
18806;SDS011;9531;52.030;4.380;2023-04-01T11:25:36;13.10;;;6.32;;
18806;SDS011;9531;52.030;4.380;2023-04-01T11:28:25;13.82;;;5.63;;
18806;SDS011;9531;52.030;4.380;2023-04-01T11:31:19;14.73;;;6.13;;
18806;SDS011;9531;52.030;4.380;2023-04-01T11:33:57;15.23;;;6.03;;
18806;SDS011;9531;52.030;4.380;2023-04-01T11:36:34;15.10;;;7.28;;
18806;SDS011;9531;52.030;4.380;2023-04-01T11:39:15;13.25;;;5.47;;
18806;SDS011;9531;52.030;4.380;2023-04-01T11:41:51;13.60;;;6.60;;
18806;SDS011;9531;52.030;4.380;2023-04-01T11:44:28;16.38;;;6.82;;
18806;SDS011;9531;52.030;4.380;2023-04-01T11:47:03;12.20;;;5.68;;
18806;SDS011;9531;52.030;4.380;2023-04-01T11:49:51;11.80;;;6.03;;
18806;SDS011;9531;52.030;4.380;2023-04-01T11:52:32;11.48;;;5.30;;
18806;SDS011;9531;52.030;4.380;2023-04-01T11:55:15;12.50;;;5.07;;
18806;SDS011;9531;52.030;4.380;2023-04-01T11:57:53;15.30;;;6.25;;
18806;SDS011;9531;52.030;4.380;2023-04-01T12:03:46;16.17;;;6.30;;
18806;SDS011;9531;52.030;4.380;2023-04-01T12:06:33;12.60;;;5.30;;
18806;SDS011;9531;52.030;4.380;2023-04-01T12:09:12;12.25;;;5.85;;
18806;SDS011;9531;52.030;4.380;2023-04-01T12:11:49;11.60;;;6.28;;
18806;SDS011;9531;52.030;4.380;2023-04-01T12:14:36;11.95;;;4.90;;
18806;SDS011;9531;52.030;4.380;2023-04-01T12:17:12;13.45;;;5.47;;
18806;SDS011;9531;52.030;4.380;2023-04-01T12:19:51;12.30;;;5.78;;
18806;SDS011;9531;52.030;4.380;2023-04-01T12:22:29;8.32;;;4.00;;
18806;SDS011;9531;52.030;4.380;2023-04-01T12:28:06;10.73;;;5.03;;
18806;SDS011;9531;52.030;4.380;2023-04-01T12:30:46;10.80;;;5.35;;
18806;SDS011;9531;52.030;4.380;2023-04-01T12:33:34;9.15;;;4.50;;
18806;SDS011;9531;52.030;4.380;2023-04-01T12:42:05;8.20;;;4.75;;
18806;SDS011;9531;52.030;4.380;2023-04-01T12:44:52;6.95;;;4.05;;
18806;SDS011;9531;52.030;4.380;2023-04-01T12:47:44;11.40;;;5.05;;
18806;SDS011;9531;52.030;4.380;2023-04-01T12:50:30;8.25;;;4.45;;
18806;SDS011;9531;52.030;4.380;2023-04-01T12:53:16;6.85;;;3.42;;
18806;SDS011;9531;52.030;4.380;2023-04-01T12:56:00;8.38;;;4.20;;
18806;SDS011;9531;52.030;4.380;2023-04-01T12:58:38;7.88;;;4.20;;
18806;SDS011;9531;52.030;4.380;2023-04-01T13:01:40;7.00;;;3.58;;
18806;SDS011;9531;52.030;4.380;2023-04-01T13:10:20;8.18;;;4.10;;
18806;SDS011;9531;52.030;4.380;2023-04-01T13:16:06;8.02;;;4.57;;
18806;SDS011;9531;52.030;4.380;2023-04-01T13:18:39;8.15;;;4.65;;
18806;SDS011;9531;52.030;4.380;2023-04-01T13:21:20;9.05;;;3.88;;
18806;SDS011;9531;52.030;4.380;2023-04-01T13:23:59;9.02;;;4.10;;
18806;SDS011;9531;52.030;4.380;2023-04-01T13:26:34;8.65;;;4.03;;
18806;SDS011;9531;52.030;4.380;2023-04-01T13:29:04;5.57;;;3.00;;
18806;SDS011;9531;52.030;4.380;2023-04-01T13:31:38;9.13;;;3.08;;
18806;SDS011;9531;52.030;4.380;2023-04-01T13:34:17;5.80;;;2.65;;
18806;SDS011;9531;52.030;4.380;2023-04-01T13:36:59;5.43;;;2.88;;
18806;SDS011;9531;52.030;4.380;2023-04-01T13:39:40;6.38;;;2.60;;
18806;SDS011;9531;52.030;4.380;2023-04-01T13:42:33;6.82;;;2.80;;
18806;SDS011;9531;52.030;4.380;2023-04-01T13:45:10;6.65;;;2.50;;
18806;SDS011;9531;52.030;4.380;2023-04-01T13:47:58;3.70;;;2.20;;
18806;SDS011;9531;52.030;4.380;2023-04-01T13:50:52;9.70;;;2.70;;
18806;SDS011;9531;52.030;4.380;2023-04-01T13:53:33;4.30;;;2.15;;
18806;SDS011;9531;52.030;4.380;2023-04-01T13:56:38;5.88;;;2.22;;
18806;SDS011;9531;52.030;4.380;2023-04-01T13:59:21;6.65;;;2.33;;
18806;SDS011;9531;52.030;4.380;2023-04-01T14:02:14;6.60;;;2.33;;
18806;SDS011;9531;52.030;4.380;2023-04-01T14:05:04;6.95;;;2.70;;
18806;SDS011;9531;52.030;4.380;2023-04-01T14:07:45;5.63;;;2.03;;
18806;SDS011;9531;52.030;4.380;2023-04-01T14:10:28;12.38;;;3.38;;
18806;SDS011;9531;52.030;4.380;2023-04-01T14:13:02;7.38;;;2.72;;
18806;SDS011;9531;52.030;4.380;2023-04-01T14:15:37;6.40;;;2.58;;
18806;SDS011;9531;52.030;4.380;2023-04-01T14:18:32;5.15;;;2.40;;
18806;SDS011;9531;52.030;4.380;2023-04-01T14:21:13;5.50;;;2.50;;
18806;SDS011;9531;52.030;4.380;2023-04-01T14:26:49;3.45;;;2.42;;
18806;SDS011;9531;52.030;4.380;2023-04-01T14:29:29;9.15;;;3.10;;
18806;SDS011;9531;52.030;4.380;2023-04-01T14:32:07;12.70;;;2.88;;
18806;SDS011;9531;52.030;4.380;2023-04-01T14:34:45;9.10;;;3.03;;
18806;SDS011;9531;52.030;4.380;2023-04-01T14:37:31;7.57;;;2.50;;
18806;SDS011;9531;52.030;4.380;2023-04-01T14:40:24;10.48;;;2.70;;
18806;SDS011;9531;52.030;4.380;2023-04-01T14:42:59;13.68;;;3.10;;
18806;SDS011;9531;52.030;4.380;2023-04-01T14:48:52;7.13;;;2.38;;
18806;SDS011;9531;52.030;4.380;2023-04-01T14:51:23;12.10;;;2.42;;
18806;SDS011;9531;52.030;4.380;2023-04-01T14:53:59;5.97;;;2.15;;
18806;SDS011;9531;52.030;4.380;2023-04-01T14:56:40;8.55;;;2.40;;
18806;SDS011;9531;52.030;4.380;2023-04-01T14:59:09;10.25;;;2.70;;
18806;SDS011;9531;52.030;4.380;2023-04-01T15:01:42;8.60;;;2.78;;
18806;SDS011;9531;52.030;4.380;2023-04-01T15:04:26;8.68;;;2.40;;
18806;SDS011;9531;52.030;4.380;2023-04-01T15:10:17;6.88;;;2.00;;
18806;SDS011;9531;52.030;4.380;2023-04-01T15:12:58;7.55;;;2.38;;
18806;SDS011;9531;52.030;4.380;2023-04-01T15:15:39;9.93;;;2.80;;
18806;SDS011;9531;52.030;4.380;2023-04-01T15:18:26;6.75;;;2.60;;
18806;SDS011;9531;52.030;4.380;2023-04-01T15:21:10;10.07;;;2.70;;
18806;SDS011;9531;52.030;4.380;2023-04-01T15:23:46;6.55;;;2.40;;
18806;SDS011;9531;52.030;4.380;2023-04-01T15:26:26;8.20;;;2.33;;
18806;SDS011;9531;52.030;4.380;2023-04-01T15:29:11;8.15;;;2.72;;
18806;SDS011;9531;52.030;4.380;2023-04-01T15:31:52;10.27;;;2.75;;
18806;SDS011;9531;52.030;4.380;2023-04-01T15:34:26;10.73;;;2.97;;
18806;SDS011;9531;52.030;4.380;2023-04-01T15:37:04;8.30;;;2.53;;
18806;SDS011;9531;52.030;4.380;2023-04-01T15:39:44;9.07;;;2.78;;
18806;SDS011;9531;52.030;4.380;2023-04-01T15:42:37;6.43;;;2.47;;
18806;SDS011;9531;52.030;4.380;2023-04-01T15:45:16;9.68;;;2.47;;
18806;SDS011;9531;52.030;4.380;2023-04-01T15:48:01;7.40;;;2.67;;
18806;SDS011;9531;52.030;4.380;2023-04-01T15:50:37;9.63;;;2.40;;
18806;SDS011;9531;52.030;4.380;2023-04-01T15:53:29;12.68;;;2.88;;
18806;SDS011;9531;52.030;4.380;2023-04-01T15:56:19;10.18;;;2.80;;
18806;SDS011;9531;52.030;4.380;2023-04-01T15:59:09;10.52;;;2.60;;
18806;SDS011;9531;52.030;4.380;2023-04-01T16:01:47;6.20;;;1.95;;
18806;SDS011;9531;52.030;4.380;2023-04-01T16:07:21;9.68;;;2.83;;
18806;SDS011;9531;52.030;4.380;2023-04-01T16:10:23;8.77;;;2.28;;
18806;SDS011;9531;52.030;4.380;2023-04-01T16:13:02;6.93;;;2.38;;
18806;SDS011;9531;52.030;4.380;2023-04-01T16:21:36;8.10;;;2.42;;
18806;SDS011;9531;52.030;4.380;2023-04-01T16:24:12;5.47;;;2.17;;
18806;SDS011;9531;52.030;4.380;2023-04-01T16:26:47;9.68;;;2.85;;
18806;SDS011;9531;52.030;4.380;2023-04-01T16:29:27;8.13;;;2.63;;
18806;SDS011;9531;52.030;4.380;2023-04-01T16:32:05;6.93;;;2.17;;
18806;SDS011;9531;52.030;4.380;2023-04-01T16:34:54;8.40;;;2.95;;
18806;SDS011;9531;52.030;4.380;2023-04-01T16:37:29;7.72;;;2.83;;
18806;SDS011;9531;52.030;4.380;2023-04-01T16:40:09;6.53;;;2.50;;
18806;SDS011;9531;52.030;4.380;2023-04-01T16:42:46;5.55;;;2.67;;
18806;SDS011;9531;52.030;4.380;2023-04-01T16:45:30;5.80;;;2.63;;
18806;SDS011;9531;52.030;4.380;2023-04-01T16:48:08;6.63;;;2.50;;
18806;SDS011;9531;52.030;4.380;2023-04-01T16:50:48;6.95;;;3.20;;
18806;SDS011;9531;52.030;4.380;2023-04-01T16:53:24;6.18;;;2.78;;
18806;SDS011;9531;52.030;4.380;2023-04-01T16:56:03;6.50;;;2.95;;
18806;SDS011;9531;52.030;4.380;2023-04-01T16:58:39;6.82;;;2.75;;
18806;SDS011;9531;52.030;4.380;2023-04-01T17:01:11;4.78;;;2.55;;
18806;SDS011;9531;52.030;4.380;2023-04-01T17:03:42;4.57;;;2.50;;
18806;SDS011;9531;52.030;4.380;2023-04-01T17:06:15;6.25;;;3.60;;
18806;SDS011;9531;52.030;4.380;2023-04-01T17:08:55;5.07;;;2.85;;
18806;SDS011;9531;52.030;4.380;2023-04-01T17:11:49;6.15;;;3.13;;
18806;SDS011;9531;52.030;4.380;2023-04-01T17:14:25;4.07;;;2.85;;
18806;SDS011;9531;52.030;4.380;2023-04-01T17:17:05;4.40;;;2.50;;
18806;SDS011;9531;52.030;4.380;2023-04-01T17:20:01;4.03;;;2.85;;
18806;SDS011;9531;52.030;4.380;2023-04-01T17:22:43;4.20;;;2.92;;
18806;SDS011;9531;52.030;4.380;2023-04-01T17:28:25;5.03;;;2.70;;
18806;SDS011;9531;52.030;4.380;2023-04-01T17:31:04;6.20;;;3.13;;
18806;SDS011;9531;52.030;4.380;2023-04-01T17:33:42;3.40;;;2.63;;